sensor_id;sensor_type;location;lat;lon;timestamp;temperature;humidity
9939;DHT22;5008;50.656;7.188;2023-11-21T05:03:38;9.50;99.90
9939;DHT22;5008;50.656;7.188;2023-11-21T05:06:09;9.50;99.90
9939;DHT22;5008;50.656;7.188;2023-11-21T05:08:36;9.50;99.90
9939;DHT22;5008;50.656;7.188;2023-11-21T05:11:33;9.60;99.90
9939;DHT22;5008;50.656;7.188;2023-11-21T05:14:00;9.50;99.90
9939;DHT22;5008;50.656;7.188;2023-11-21T05:16:27;9.50;99.90
9939;DHT22;5008;50.656;7.188;2023-11-21T05:18:55;9.50;99.90
9939;DHT22;5008;50.656;7.188;2023-11-21T05:21:26;9.50;99.90
9939;DHT22;5008;50.656;7.188;2023-11-21T05:23:52;9.50;99.90
9939;DHT22;5008;50.656;7.188;2023-11-21T05:26:19;9.50;99.90
9939;DHT22;5008;50.656;7.188;2023-11-21T05:28:48;9.50;99.90
9939;DHT22;5008;50.656;7.188;2023-11-21T05:31:15;9.50;99.90
9939;DHT22;5008;50.656;7.188;2023-11-21T05:33:42;9.50;99.90
9939;DHT22;5008;50.656;7.188;2023-11-21T05:36:10;9.50;99.90
9939;DHT22;5008;50.656;7.188;2023-11-21T05:38:37;9.60;99.90
9939;DHT22;5008;50.656;7.188;2023-11-21T05:41:04;9.60;99.90
9939;DHT22;5008;50.656;7.188;2023-11-21T05:43:32;9.60;99.90
9939;DHT22;5008;50.656;7.188;2023-11-21T05:46:01;9.60;99.90
9939;DHT22;5008;50.656;7.188;2023-11-21T05:48:27;9.50;99.90
9939;DHT22;5008;50.656;7.188;2023-11-21T05:50:54;9.60;99.90
9939;DHT22;5008;50.656;7.188;2023-11-21T05:53:22;9.60;99.90
9939;DHT22;5008;50.656;7.188;2023-11-21T05:55:49;9.60;99.90
9939;DHT22;5008;50.656;7.188;2023-11-21T05:58:16;9.60;99.90
9939;DHT22;5008;50.656;7.188;2023-11-21T06:00:43;9.60;99.90
9939;DHT22;5008;50.656;7.188;2023-11-21T06:03:10;9.60;99.90
9939;DHT22;5008;50.656;7.188;2023-11-21T06:05:36;9.60;99.90
9939;DHT22;5008;50.656;7.188;2023-11-21T06:08:04;9.60;99.90
9939;DHT22;5008;50.656;7.188;2023-11-21T06:10:33;9.60;99.90
9939;DHT22;5008;50.656;7.188;2023-11-21T06:13:01;9.60;99.90
9939;DHT22;5008;50.656;7.188;2023-11-21T06:15:29;9.60;99.90
9939;DHT22;5008;50.656;7.188;2023-11-21T06:17:56;9.60;99.90
9939;DHT22;5008;50.656;7.188;2023-11-21T06:20:24;9.50;99.90
9939;DHT22;5008;50.656;7.188;2023-11-21T06:22:51;9.50;99.90
9939;DHT22;5008;50.656;7.188;2023-11-21T06:25:18;9.50;99.90
9939;DHT22;5008;50.656;7.188;2023-11-21T06:27:47;9.50;99.90
9939;DHT22;5008;50.656;7.188;2023-11-21T06:30:15;9.50;99.90
9939;DHT22;5008;50.656;7.188;2023-11-21T06:32:42;9.60;99.90
9939;DHT22;5008;50.656;7.188;2023-11-21T06:35:11;9.60;99.90
9939;DHT22;5008;50.656;7.188;2023-11-21T06:37:38;9.70;99.90
9939;DHT22;5008;50.656;7.188;2023-11-21T06:40:06;9.60;99.90
9939;DHT22;5008;50.656;7.188;2023-11-21T06:42:34;9.60;99.90
9939;DHT22;5008;50.656;7.188;2023-11-21T06:45:06;9.60;99.90
9939;DHT22;5008;50.656;7.188;2023-11-21T06:47:33;9.60;99.90
9939;DHT22;5008;50.656;7.188;2023-11-21T06:50:00;9.60;99.90
9939;DHT22;5008;50.656;7.188;2023-11-21T06:52:26;9.60;99.90
9939;DHT22;5008;50.656;7.188;2023-11-21T06:54:53;9.60;99.90
9939;DHT22;5008;50.656;7.188;2023-11-21T06:57:20;9.50;99.90
9939;DHT22;5008;50.656;7.188;2023-11-21T06:59:49;9.50;99.90
9939;DHT22;5008;50.656;7.188;2023-11-21T07:02:18;9.50;99.90
9939;DHT22;5008;50.656;7.188;2023-11-21T07:04:45;9.50;99.90
9939;DHT22;5008;50.656;7.188;2023-11-21T07:07:12;9.50;99.90
9939;DHT22;5008;50.656;7.188;2023-11-21T07:09:38;9.50;99.90
9939;DHT22;5008;50.656;7.188;2023-11-21T07:12:12;9.50;99.90
9939;DHT22;5008;50.656;7.188;2023-11-21T07:14:39;9.50;99.90
9939;DHT22;5008;50.656;7.188;2023-11-21T07:17:08;9.50;99.90
9939;DHT22;5008;50.656;7.188;2023-11-21T07:19:36;9.50;99.90
9939;DHT22;5008;50.656;7.188;2023-11-21T07:22:03;9.50;99.90
9939;DHT22;5008;50.656;7.188;2023-11-21T07:24:31;9.50;99.90
9939;DHT22;5008;50.656;7.188;2023-11-21T07:27:00;9.50;99.90
9939;DHT22;5008;50.656;7.188;2023-11-21T07:29:26;9.50;99.90
9939;DHT22;5008;50.656;7.188;2023-11-21T07:32:02;9.50;99.90
9939;DHT22;5008;50.656;7.188;2023-11-21T07:34:29;9.50;99.90
9939;DHT22;5008;50.656;7.188;2023-11-21T07:36:57;9.50;99.90
9939;DHT22;5008;50.656;7.188;2023-11-21T07:39:24;9.50;99.90
9939;DHT22;5008;50.656;7.188;2023-11-21T07:41:51;9.50;99.90
9939;DHT22;5008;50.656;7.188;2023-11-21T07:44:17;9.60;99.90
9939;DHT22;5008;50.656;7.188;2023-11-21T07:46:45;9.60;99.90
9939;DHT22;5008;50.656;7.188;2023-11-21T07:49:12;9.60;99.90
9939;DHT22;5008;50.656;7.188;2023-11-21T07:51:41;9.60;99.90
9939;DHT22;5008;50.656;7.188;2023-11-21T07:54:09;9.60;99.90
9939;DHT22;5008;50.656;7.188;2023-11-21T07:56:36;9.60;99.90
9939;DHT22;5008;50.656;7.188;2023-11-21T07:59:03;9.60;99.90
9939;DHT22;5008;50.656;7.188;2023-11-21T08:01:30;9.60;99.90
9939;DHT22;5008;50.656;7.188;2023-11-21T08:03:57;9.60;99.90
9939;DHT22;5008;50.656;7.188;2023-11-21T08:06:27;9.60;99.90
9939;DHT22;5008;50.656;7.188;2023-11-21T08:08:54;9.60;99.90
9939;DHT22;5008;50.656;7.188;2023-11-21T08:11:22;9.70;99.90
9939;DHT22;5008;50.656;7.188;2023-11-21T08:13:49;9.70;99.90
9939;DHT22;5008;50.656;7.188;2023-11-21T08:16:15;9.70;99.90
9939;DHT22;5008;50.656;7.188;2023-11-21T08:18:42;9.60;99.90
9939;DHT22;5008;50.656;7.188;2023-11-21T08:21:09;9.70;99.90
9939;DHT22;5008;50.656;7.188;2023-11-21T08:23:37;9.70;99.90
9939;DHT22;5008;50.656;7.188;2023-11-21T08:26:05;9.80;99.90
9939;DHT22;5008;50.656;7.188;2023-11-21T08:28:33;9.70;99.90
9939;DHT22;5008;50.656;7.188;2023-11-21T08:31:00;9.80;99.90
9939;DHT22;5008;50.656;7.188;2023-11-21T08:33:27;9.80;99.90
9939;DHT22;5008;50.656;7.188;2023-11-21T08:35:54;9.90;99.90
9939;DHT22;5008;50.656;7.188;2023-11-21T08:38:21;9.80;99.90
9939;DHT22;5008;50.656;7.188;2023-11-21T08:40:48;9.90;99.90
9939;DHT22;5008;50.656;7.188;2023-11-21T08:43:14;9.90;99.90
9939;DHT22;5008;50.656;7.188;2023-11-21T08:45:43;10.00;99.90
9939;DHT22;5008;50.656;7.188;2023-11-21T08:48:10;9.90;99.90
9939;DHT22;5008;50.656;7.188;2023-11-21T08:50:37;10.00;99.90
9939;DHT22;5008;50.656;7.188;2023-11-21T08:53:04;9.90;99.90
9939;DHT22;5008;50.656;7.188;2023-11-21T08:55:31;9.90;99.90
9939;DHT22;5008;50.656;7.188;2023-11-21T08:58:02;9.90;99.90
9939;DHT22;5008;50.656;7.188;2023-11-21T09:00:32;9.90;99.90
9939;DHT22;5008;50.656;7.188;2023-11-21T09:03:02;9.80;99.90
9939;DHT22;5008;50.656;7.188;2023-11-21T09:05:34;9.90;99.90
9939;DHT22;5008;50.656;7.188;2023-11-21T09:08:01;9.90;99.90
9939;DHT22;5008;50.656;7.188;2023-11-21T09:10:27;10.00;99.90
9939;DHT22;5008;50.656;7.188;2023-11-21T09:12:54;10.00;99.90
9939;DHT22;5008;50.656;7.188;2023-11-21T09:15:21;10.00;99.90
9939;DHT22;5008;50.656;7.188;2023-11-21T09:17:48;10.10;99.90
9939;DHT22;5008;50.656;7.188;2023-11-21T09:20:16;10.20;99.90
9939;DHT22;5008;50.656;7.188;2023-11-21T09:22:43;10.30;99.90
9939;DHT22;5008;50.656;7.188;2023-11-21T09:25:11;10.30;99.90
9939;DHT22;5008;50.656;7.188;2023-11-21T09:27:38;10.30;99.90
9939;DHT22;5008;50.656;7.188;2023-11-21T09:30:06;10.40;99.90
9939;DHT22;5008;50.656;7.188;2023-11-21T09:32:35;10.40;99.90
9939;DHT22;5008;50.656;7.188;2023-11-21T09:35:03;10.40;99.90
9939;DHT22;5008;50.656;7.188;2023-11-21T09:37:31;10.50;99.90
9939;DHT22;5008;50.656;7.188;2023-11-21T09:39:59;10.50;99.90
9939;DHT22;5008;50.656;7.188;2023-11-21T09:42:31;10.50;99.90
9939;DHT22;5008;50.656;7.188;2023-11-21T09:45:17;10.50;99.90
9939;DHT22;5008;50.656;7.188;2023-11-21T09:47:46;10.60;99.90
9939;DHT22;5008;50.656;7.188;2023-11-21T09:50:17;10.60;99.90
9939;DHT22;5008;50.656;7.188;2023-11-21T09:52:52;10.60;99.90
9939;DHT22;5008;50.656;7.188;2023-11-21T09:55:35;10.60;99.90
9939;DHT22;5008;50.656;7.188;2023-11-21T09:58:03;10.70;99.90
9939;DHT22;5008;50.656;7.188;2023-11-21T10:00:33;10.70;99.90
9939;DHT22;5008;50.656;7.188;2023-11-21T10:03:04;10.60;99.90
9939;DHT22;5008;50.656;7.188;2023-11-21T10:05:31;10.60;99.90
9939;DHT22;5008;50.656;7.188;2023-11-21T10:08:01;10.60;99.90
9939;DHT22;5008;50.656;7.188;2023-11-21T10:10:30;10.60;99.90
9939;DHT22;5008;50.656;7.188;2023-11-21T10:13:03;10.60;99.90
9939;DHT22;5008;50.656;7.188;2023-11-21T10:15:33;10.60;99.90
9939;DHT22;5008;50.656;7.188;2023-11-21T10:18:02;10.70;99.90
9939;DHT22;5008;50.656;7.188;2023-11-21T10:20:30;10.70;99.90
9939;DHT22;5008;50.656;7.188;2023-11-21T10:23:00;10.70;99.90
9939;DHT22;5008;50.656;7.188;2023-11-21T10:25:29;10.70;99.90
9939;DHT22;5008;50.656;7.188;2023-11-21T10:27:58;10.80;99.90
9939;DHT22;5008;50.656;7.188;2023-11-21T10:30:28;10.90;99.90
9939;DHT22;5008;50.656;7.188;2023-11-21T10:32:59;11.00;99.90
9939;DHT22;5008;50.656;7.188;2023-11-21T10:35:39;11.00;99.90
9939;DHT22;5008;50.656;7.188;2023-11-21T10:38:08;11.10;99.90
9939;DHT22;5008;50.656;7.188;2023-11-21T10:40:38;11.10;99.90
9939;DHT22;5008;50.656;7.188;2023-11-21T10:43:07;11.10;99.90
9939;DHT22;5008;50.656;7.188;2023-11-21T10:45:36;11.10;99.90
9939;DHT22;5008;50.656;7.188;2023-11-21T10:48:05;11.10;99.90
9939;DHT22;5008;50.656;7.188;2023-11-21T10:50:33;11.10;99.90
9939;DHT22;5008;50.656;7.188;2023-11-21T10:53:02;11.10;99.90
9939;DHT22;5008;50.656;7.188;2023-11-21T10:55:32;11.00;99.90
9939;DHT22;5008;50.656;7.188;2023-11-21T10:58:00;11.00;99.90
9939;DHT22;5008;50.656;7.188;2023-11-21T11:00:31;11.00;99.90
9939;DHT22;5008;50.656;7.188;2023-11-21T11:02:59;10.90;99.90
9939;DHT22;5008;50.656;7.188;2023-11-21T11:05:28;10.80;99.90
9939;DHT22;5008;50.656;7.188;2023-11-21T11:07:58;10.80;99.90
9939;DHT22;5008;50.656;7.188;2023-11-21T11:10:27;10.90;99.90
9939;DHT22;5008;50.656;7.188;2023-11-21T11:12:56;10.90;99.90
9939;DHT22;5008;50.656;7.188;2023-11-21T11:15:27;11.10;99.90
9939;DHT22;5008;50.656;7.188;2023-11-21T11:17:55;11.10;99.90
9939;DHT22;5008;50.656;7.188;2023-11-21T11:20:24;11.10;99.90
9939;DHT22;5008;50.656;7.188;2023-11-21T11:23:04;11.20;99.90
9939;DHT22;5008;50.656;7.188;2023-11-21T11:25:55;11.30;99.90
9939;DHT22;5008;50.656;7.188;2023-11-21T11:28:35;11.30;99.90
9939;DHT22;5008;50.656;7.188;2023-11-21T11:31:10;11.30;99.90
9939;DHT22;5008;50.656;7.188;2023-11-21T11:33:45;11.40;99.90
9939;DHT22;5008;50.656;7.188;2023-11-21T11:36:19;11.30;99.90
9939;DHT22;5008;50.656;7.188;2023-11-21T11:38:47;11.30;99.90
9939;DHT22;5008;50.656;7.188;2023-11-21T11:41:24;11.30;99.90
9939;DHT22;5008;50.656;7.188;2023-11-21T11:43:54;11.40;99.90
9939;DHT22;5008;50.656;7.188;2023-11-21T11:46:21;11.50;99.90
9939;DHT22;5008;50.656;7.188;2023-11-21T11:49:11;11.50;99.90
9939;DHT22;5008;50.656;7.188;2023-11-21T11:52:36;11.50;99.90
9939;DHT22;5008;50.656;7.188;2023-11-21T11:55:06;11.50;99.90
9939;DHT22;5008;50.656;7.188;2023-11-21T11:57:35;11.50;99.90
9939;DHT22;5008;50.656;7.188;2023-11-21T12:00:15;11.50;99.90
9939;DHT22;5008;50.656;7.188;2023-11-21T12:02:45;11.40;99.90
9939;DHT22;5008;50.656;7.188;2023-11-21T12:05:14;11.40;99.90
9939;DHT22;5008;50.656;7.188;2023-11-21T12:07:47;11.30;99.90
9939;DHT22;5008;50.656;7.188;2023-11-21T12:10:16;11.30;99.90
9939;DHT22;5008;50.656;7.188;2023-11-21T12:12:46;11.20;99.90
9939;DHT22;5008;50.656;7.188;2023-11-21T12:15:14;11.20;99.90
9939;DHT22;5008;50.656;7.188;2023-11-21T12:17:42;11.10;99.90
9939;DHT22;5008;50.656;7.188;2023-11-21T12:20:10;11.10;99.90
9939;DHT22;5008;50.656;7.188;2023-11-21T12:22:44;11.10;99.90
9939;DHT22;5008;50.656;7.188;2023-11-21T12:25:14;11.10;99.90
9939;DHT22;5008;50.656;7.188;2023-11-21T12:27:44;11.10;99.90
9939;DHT22;5008;50.656;7.188;2023-11-21T12:30:14;11.10;99.90
9939;DHT22;5008;50.656;7.188;2023-11-21T12:32:41;11.20;99.90
9939;DHT22;5008;50.656;7.188;2023-11-21T12:35:09;11.20;99.90
9939;DHT22;5008;50.656;7.188;2023-11-21T12:37:37;11.30;99.90
9939;DHT22;5008;50.656;7.188;2023-11-21T12:40:06;11.30;99.90
9939;DHT22;5008;50.656;7.188;2023-11-21T12:42:33;11.40;99.90
9939;DHT22;5008;50.656;7.188;2023-11-21T12:45:08;11.40;99.90
9939;DHT22;5008;50.656;7.188;2023-11-21T12:47:41;11.40;99.90
9939;DHT22;5008;50.656;7.188;2023-11-21T12:50:09;11.50;99.90
9939;DHT22;5008;50.656;7.188;2023-11-21T12:52:44;11.40;99.90
9939;DHT22;5008;50.656;7.188;2023-11-21T12:55:17;11.50;99.90
9939;DHT22;5008;50.656;7.188;2023-11-21T12:57:45;11.40;99.90
9939;DHT22;5008;50.656;7.188;2023-11-21T13:00:13;11.40;99.90
9939;DHT22;5008;50.656;7.188;2023-11-21T13:02:54;11.40;99.90
9939;DHT22;5008;50.656;7.188;2023-11-21T13:05:30;11.40;99.90
9939;DHT22;5008;50.656;7.188;2023-11-21T13:08:01;11.30;99.90
9939;DHT22;5008;50.656;7.188;2023-11-21T13:10:30;11.40;99.90
9939;DHT22;5008;50.656;7.188;2023-11-21T13:12:57;11.50;99.90
9939;DHT22;5008;50.656;7.188;2023-11-21T13:15:26;11.50;99.90
9939;DHT22;5008;50.656;7.188;2023-11-21T13:17:55;11.50;99.90
9939;DHT22;5008;50.656;7.188;2023-11-21T13:20:23;11.50;99.90
9939;DHT22;5008;50.656;7.188;2023-11-21T13:22:52;11.50;99.90
9939;DHT22;5008;50.656;7.188;2023-11-21T13:25:22;11.40;99.90
9939;DHT22;5008;50.656;7.188;2023-11-21T13:27:49;11.40;99.90
9939;DHT22;5008;50.656;7.188;2023-11-21T13:30:16;11.40;99.90
9939;DHT22;5008;50.656;7.188;2023-11-21T13:32:44;11.40;99.90
9939;DHT22;5008;50.656;7.188;2023-11-21T13:35:13;11.40;99.90
9939;DHT22;5008;50.656;7.188;2023-11-21T13:37:50;11.50;99.90
9939;DHT22;5008;50.656;7.188;2023-11-21T13:40:22;11.50;99.90
9939;DHT22;5008;50.656;7.188;2023-11-21T13:42:52;11.50;99.90
9939;DHT22;5008;50.656;7.188;2023-11-21T13:45:21;11.50;99.90
9939;DHT22;5008;50.656;7.188;2023-11-21T13:47:50;11.50;99.90
9939;DHT22;5008;50.656;7.188;2023-11-21T13:50:25;11.50;99.90
9939;DHT22;5008;50.656;7.188;2023-11-21T13:52:58;11.50;99.90
9939;DHT22;5008;50.656;7.188;2023-11-21T13:55:28;11.40;99.90
9939;DHT22;5008;50.656;7.188;2023-11-21T13:57:55;11.40;99.90
9939;DHT22;5008;50.656;7.188;2023-11-21T14:00:22;11.50;99.90
9939;DHT22;5008;50.656;7.188;2023-11-21T14:03:09;11.40;99.90
9939;DHT22;5008;50.656;7.188;2023-11-21T14:05:45;11.30;99.90
9939;DHT22;5008;50.656;7.188;2023-11-21T14:08:17;11.30;99.90
9939;DHT22;5008;50.656;7.188;2023-11-21T14:10:46;11.20;99.90
9939;DHT22;5008;50.656;7.188;2023-11-21T14:13:16;11.20;99.90
9939;DHT22;5008;50.656;7.188;2023-11-21T14:15:43;11.20;99.90
9939;DHT22;5008;50.656;7.188;2023-11-21T14:18:11;11.10;99.90
9939;DHT22;5008;50.656;7.188;2023-11-21T14:20:42;11.10;99.90
9939;DHT22;5008;50.656;7.188;2023-11-21T14:23:11;11.10;99.90
9939;DHT22;5008;50.656;7.188;2023-11-21T14:25:51;11.10;99.90
9939;DHT22;5008;50.656;7.188;2023-11-21T14:28:18;11.00;99.90
9939;DHT22;5008;50.656;7.188;2023-11-21T14:30:45;11.00;99.90
9939;DHT22;5008;50.656;7.188;2023-11-21T14:33:12;10.90;99.90
9939;DHT22;5008;50.656;7.188;2023-11-21T14:35:42;10.90;99.90
9939;DHT22;5008;50.656;7.188;2023-11-21T14:38:09;10.90;99.90
9939;DHT22;5008;50.656;7.188;2023-11-21T14:40:37;10.90;99.90
9939;DHT22;5008;50.656;7.188;2023-11-21T14:43:06;10.90;99.90
9939;DHT22;5008;50.656;7.188;2023-11-21T14:45:33;10.90;99.90
9939;DHT22;5008;50.656;7.188;2023-11-21T14:48:00;10.90;99.90
9939;DHT22;5008;50.656;7.188;2023-11-21T14:50:34;10.90;99.90
9939;DHT22;5008;50.656;7.188;2023-11-21T14:53:13;10.90;99.90
9939;DHT22;5008;50.656;7.188;2023-11-21T14:55:41;10.90;99.90
9939;DHT22;5008;50.656;7.188;2023-11-21T14:58:24;10.90;99.90
9939;DHT22;5008;50.656;7.188;2023-11-21T15:00:56;10.80;99.90
9939;DHT22;5008;50.656;7.188;2023-11-21T15:03:27;10.80;99.90
9939;DHT22;5008;50.656;7.188;2023-11-21T15:06:09;10.80;99.90
9939;DHT22;5008;50.656;7.188;2023-11-21T15:08:50;10.80;99.90
9939;DHT22;5008;50.656;7.188;2023-11-21T15:11:26;10.80;99.90
9939;DHT22;5008;50.656;7.188;2023-11-21T15:13:56;10.70;99.90
9939;DHT22;5008;50.656;7.188;2023-11-21T15:16:22;10.70;99.90
9939;DHT22;5008;50.656;7.188;2023-11-21T15:18:51;10.70;99.90
9939;DHT22;5008;50.656;7.188;2023-11-21T15:21:18;10.70;99.90
9939;DHT22;5008;50.656;7.188;2023-11-21T15:23:47;10.70;99.90
9939;DHT22;5008;50.656;7.188;2023-11-21T15:26:14;10.70;99.90
9939;DHT22;5008;50.656;7.188;2023-11-21T15:28:42;10.70;99.90
9939;DHT22;5008;50.656;7.188;2023-11-21T15:31:09;10.70;99.90
9939;DHT22;5008;50.656;7.188;2023-11-21T15:33:36;10.60;99.90
9939;DHT22;5008;50.656;7.188;2023-11-21T15:36:03;10.60;99.90
9939;DHT22;5008;50.656;7.188;2023-11-21T15:38:30;10.60;99.90
9939;DHT22;5008;50.656;7.188;2023-11-21T15:40:57;10.60;99.90
9939;DHT22;5008;50.656;7.188;2023-11-21T15:43:25;10.60;99.90
9939;DHT22;5008;50.656;7.188;2023-11-21T15:45:55;10.70;99.90
9939;DHT22;5008;50.656;7.188;2023-11-21T15:48:22;10.70;99.90
9939;DHT22;5008;50.656;7.188;2023-11-21T15:50:48;10.60;99.90
9939;DHT22;5008;50.656;7.188;2023-11-21T15:53:17;10.70;99.90
9939;DHT22;5008;50.656;7.188;2023-11-21T15:55:44;10.70;99.90
9939;DHT22;5008;50.656;7.188;2023-11-21T15:58:11;10.70;99.90
9939;DHT22;5008;50.656;7.188;2023-11-21T16:00:38;10.70;99.90
9939;DHT22;5008;50.656;7.188;2023-11-21T16:03:05;10.70;99.90
9939;DHT22;5008;50.656;7.188;2023-11-21T16:05:32;10.60;99.90
9939;DHT22;5008;50.656;7.188;2023-11-21T16:07:58;10.60;99.90
9939;DHT22;5008;50.656;7.188;2023-11-21T16:10:26;10.60;99.90
9939;DHT22;5008;50.656;7.188;2023-11-21T16:12:53;10.50;99.90
9939;DHT22;5008;50.656;7.188;2023-11-21T16:15:19;10.60;99.90
9939;DHT22;5008;50.656;7.188;2023-11-21T16:17:48;10.60;99.90
9939;DHT22;5008;50.656;7.188;2023-11-21T16:20:16;10.60;99.90
9939;DHT22;5008;50.656;7.188;2023-11-21T16:22:42;10.60;99.90
9939;DHT22;5008;50.656;7.188;2023-11-21T16:25:10;10.60;99.90
9939;DHT22;5008;50.656;7.188;2023-11-21T16:27:39;10.60;99.90
9939;DHT22;5008;50.656;7.188;2023-11-21T16:30:08;10.50;99.90
9939;DHT22;5008;50.656;7.188;2023-11-21T16:32:35;10.50;99.90
9939;DHT22;5008;50.656;7.188;2023-11-21T16:35:02;10.50;99.90
9939;DHT22;5008;50.656;7.188;2023-11-21T16:37:31;10.50;99.90
9939;DHT22;5008;50.656;7.188;2023-11-21T16:39:58;10.50;99.90
9939;DHT22;5008;50.656;7.188;2023-11-21T16:42:25;10.60;99.90
9939;DHT22;5008;50.656;7.188;2023-11-21T16:44:53;10.50;99.90
9939;DHT22;5008;50.656;7.188;2023-11-21T16:47:20;10.50;99.90
9939;DHT22;5008;50.656;7.188;2023-11-21T16:49:48;10.40;99.90
9939;DHT22;5008;50.656;7.188;2023-11-21T16:52:15;10.40;99.90
9939;DHT22;5008;50.656;7.188;2023-11-21T16:54:44;10.40;99.90
9939;DHT22;5008;50.656;7.188;2023-11-21T16:57:10;10.50;99.90
9939;DHT22;5008;50.656;7.188;2023-11-21T16:59:37;10.50;99.90
9939;DHT22;5008;50.656;7.188;2023-11-21T17:02:04;10.50;99.90
9939;DHT22;5008;50.656;7.188;2023-11-21T17:04:31;10.40;99.90
9939;DHT22;5008;50.656;7.188;2023-11-21T17:06:59;10.50;99.90
9939;DHT22;5008;50.656;7.188;2023-11-21T17:09:26;10.50;99.90
9939;DHT22;5008;50.656;7.188;2023-11-21T17:11:55;10.50;99.90
9939;DHT22;5008;50.656;7.188;2023-11-21T17:14:24;10.50;99.90
9939;DHT22;5008;50.656;7.188;2023-11-21T17:16:50;10.60;99.90
9939;DHT22;5008;50.656;7.188;2023-11-21T17:19:17;10.60;99.90
9939;DHT22;5008;50.656;7.188;2023-11-21T17:21:44;10.60;99.90
9939;DHT22;5008;50.656;7.188;2023-11-21T17:24:11;10.50;99.90
9939;DHT22;5008;50.656;7.188;2023-11-21T17:26:40;10.50;99.90
9939;DHT22;5008;50.656;7.188;2023-11-21T17:29:09;10.50;99.90
9939;DHT22;5008;50.656;7.188;2023-11-21T17:31:36;10.50;99.90
9939;DHT22;5008;50.656;7.188;2023-11-21T17:34:03;10.50;99.90
9939;DHT22;5008;50.656;7.188;2023-11-21T17:36:30;10.50;99.90
9939;DHT22;5008;50.656;7.188;2023-11-21T17:39:03;10.40;99.90
9939;DHT22;5008;50.656;7.188;2023-11-21T17:41:34;10.50;99.90
9939;DHT22;5008;50.656;7.188;2023-11-21T17:44:02;10.50;99.90
9939;DHT22;5008;50.656;7.188;2023-11-21T17:46:30;10.50;99.90
9939;DHT22;5008;50.656;7.188;2023-11-21T17:48:57;10.50;99.90
9939;DHT22;5008;50.656;7.188;2023-11-21T17:51:24;10.50;99.90
9939;DHT22;5008;50.656;7.188;2023-11-21T17:53:51;10.50;99.90
9939;DHT22;5008;50.656;7.188;2023-11-21T17:56:23;10.50;99.90
9939;DHT22;5008;50.656;7.188;2023-11-21T17:58:50;10.50;99.90
9939;DHT22;5008;50.656;7.188;2023-11-21T18:01:19;10.50;99.90
9939;DHT22;5008;50.656;7.188;2023-11-21T18:03:47;10.50;99.90
9939;DHT22;5008;50.656;7.188;2023-11-21T18:06:14;10.50;99.90
9939;DHT22;5008;50.656;7.188;2023-11-21T18:08:41;10.50;99.90
9939;DHT22;5008;50.656;7.188;2023-11-21T18:11:08;10.50;99.90
9939;DHT22;5008;50.656;7.188;2023-11-21T18:13:35;10.50;99.90
9939;DHT22;5008;50.656;7.188;2023-11-21T18:16:02;10.50;99.90
9939;DHT22;5008;50.656;7.188;2023-11-21T18:18:49;10.50;99.90
9939;DHT22;5008;50.656;7.188;2023-11-21T18:21:17;10.40;99.90
9939;DHT22;5008;50.656;7.188;2023-11-21T18:23:43;10.40;99.90
9939;DHT22;5008;50.656;7.188;2023-11-21T18:26:15;10.40;99.90
9939;DHT22;5008;50.656;7.188;2023-11-21T18:28:42;10.40;99.90
9939;DHT22;5008;50.656;7.188;2023-11-21T18:31:09;10.50;99.90
9939;DHT22;5008;50.656;7.188;2023-11-21T18:33:35;10.40;99.90
9939;DHT22;5008;50.656;7.188;2023-11-21T18:36:06;10.40;99.90
9939;DHT22;5008;50.656;7.188;2023-11-21T18:38:33;10.30;99.90
9939;DHT22;5008;50.656;7.188;2023-11-21T18:41:01;10.20;99.90
9939;DHT22;5008;50.656;7.188;2023-11-21T18:43:28;10.10;99.90
9939;DHT22;5008;50.656;7.188;2023-11-21T18:45:55;10.20;99.90
9939;DHT22;5008;50.656;7.188;2023-11-21T18:48:21;10.10;99.90
9939;DHT22;5008;50.656;7.188;2023-11-21T18:50:48;10.10;99.90
9939;DHT22;5008;50.656;7.188;2023-11-21T18:53:21;10.10;99.90
9939;DHT22;5008;50.656;7.188;2023-11-21T18:55:48;10.00;99.90
9939;DHT22;5008;50.656;7.188;2023-11-21T18:58:15;10.00;99.90
9939;DHT22;5008;50.656;7.188;2023-11-21T19:00:42;10.00;99.90
9939;DHT22;5008;50.656;7.188;2023-11-21T19:03:09;10.00;99.90
9939;DHT22;5008;50.656;7.188;2023-11-21T19:05:36;9.90;99.90
9939;DHT22;5008;50.656;7.188;2023-11-21T19:08:03;9.80;99.90
9939;DHT22;5008;50.656;7.188;2023-11-21T19:10:32;9.80;99.90
9939;DHT22;5008;50.656;7.188;2023-11-21T19:13:05;9.80;99.90
9939;DHT22;5008;50.656;7.188;2023-11-21T19:15:32;9.70;99.90
9939;DHT22;5008;50.656;7.188;2023-11-21T19:17:59;9.70;99.90
9939;DHT22;5008;50.656;7.188;2023-11-21T19:20:25;9.70;99.90
9939;DHT22;5008;50.656;7.188;2023-11-21T19:22:52;9.80;99.90
9939;DHT22;5008;50.656;7.188;2023-11-21T19:25:20;9.80;99.90
9939;DHT22;5008;50.656;7.188;2023-11-21T19:27:49;9.80;99.90
9939;DHT22;5008;50.656;7.188;2023-11-21T19:30:17;9.70;99.90
9939;DHT22;5008;50.656;7.188;2023-11-21T19:32:44;9.70;99.90
9939;DHT22;5008;50.656;7.188;2023-11-21T19:35:11;9.70;99.90
9939;DHT22;5008;50.656;7.188;2023-11-21T19:37:38;9.70;99.90
9939;DHT22;5008;50.656;7.188;2023-11-21T19:40:06;9.60;99.90
9939;DHT22;5008;50.656;7.188;2023-11-21T19:42:32;9.60;99.90
9939;DHT22;5008;50.656;7.188;2023-11-21T19:45:01;9.50;99.90
9939;DHT22;5008;50.656;7.188;2023-11-21T19:47:28;9.40;99.90
9939;DHT22;5008;50.656;7.188;2023-11-21T19:49:55;9.40;99.90
9939;DHT22;5008;50.656;7.188;2023-11-21T19:52:22;9.40;99.90
9939;DHT22;5008;50.656;7.188;2023-11-21T19:54:51;9.30;99.90
9939;DHT22;5008;50.656;7.188;2023-11-21T19:57:19;9.30;99.90
9939;DHT22;5008;50.656;7.188;2023-11-21T19:59:45;9.30;99.90
9939;DHT22;5008;50.656;7.188;2023-11-21T20:02:14;9.30;99.90
9939;DHT22;5008;50.656;7.188;2023-11-21T20:04:41;9.20;99.90
9939;DHT22;5008;50.656;7.188;2023-11-21T20:07:08;9.40;99.90
9939;DHT22;5008;50.656;7.188;2023-11-21T20:09:35;9.40;99.90
9939;DHT22;5008;50.656;7.188;2023-11-21T20:12:03;9.30;99.90
9939;DHT22;5008;50.656;7.188;2023-11-21T20:14:30;9.40;99.90
9939;DHT22;5008;50.656;7.188;2023-11-21T20:16:58;9.40;99.90
9939;DHT22;5008;50.656;7.188;2023-11-21T20:19:26;9.40;99.90
9939;DHT22;5008;50.656;7.188;2023-11-21T20:21:54;9.40;99.90
9939;DHT22;5008;50.656;7.188;2023-11-21T20:24:21;9.30;99.90
9939;DHT22;5008;50.656;7.188;2023-11-21T20:26:48;9.20;99.90
9939;DHT22;5008;50.656;7.188;2023-11-21T20:29:22;9.30;99.90
9939;DHT22;5008;50.656;7.188;2023-11-21T20:31:49;9.20;99.90
9939;DHT22;5008;50.656;7.188;2023-11-21T20:34:16;9.20;99.90
9939;DHT22;5008;50.656;7.188;2023-11-21T20:36:46;9.10;99.90
9939;DHT22;5008;50.656;7.188;2023-11-21T20:39:14;9.10;99.90
9939;DHT22;5008;50.656;7.188;2023-11-21T20:41:41;9.10;99.90
9939;DHT22;5008;50.656;7.188;2023-11-21T20:44:09;9.30;99.90
9939;DHT22;5008;50.656;7.188;2023-11-21T20:46:39;9.10;99.90
9939;DHT22;5008;50.656;7.188;2023-11-21T20:49:09;9.00;99.90
9939;DHT22;5008;50.656;7.188;2023-11-21T20:51:36;9.00;99.90
9939;DHT22;5008;50.656;7.188;2023-11-21T20:54:05;9.00;99.90
9939;DHT22;5008;50.656;7.188;2023-11-21T20:56:50;9.00;99.90
9939;DHT22;5008;50.656;7.188;2023-11-21T20:59:24;8.90;99.90
9939;DHT22;5008;50.656;7.188;2023-11-21T21:01:52;9.20;99.90
9939;DHT22;5008;50.656;7.188;2023-11-21T21:04:19;9.10;99.90
9939;DHT22;5008;50.656;7.188;2023-11-21T21:06:46;9.10;99.90
9939;DHT22;5008;50.656;7.188;2023-11-21T21:09:14;9.00;99.90
9939;DHT22;5008;50.656;7.188;2023-11-21T21:11:41;9.00;99.90
9939;DHT22;5008;50.656;7.188;2023-11-21T21:14:08;9.00;99.90
9939;DHT22;5008;50.656;7.188;2023-11-21T21:16:39;9.00;99.90
9939;DHT22;5008;50.656;7.188;2023-11-21T21:19:07;8.90;99.90
9939;DHT22;5008;50.656;7.188;2023-11-21T21:21:35;8.90;99.90